sensor_id;sensor_type;location;lat;lon;timestamp;pressure;altitude;pressure_sealevel;temperature;humidity
71126;BME280;58785;55.566;38.058;2023-07-13T00:01:52;99376.75;;;14.26;74.32
71126;BME280;58785;55.566;38.058;2023-07-13T00:04:19;99375.94;;;14.26;74.43
71126;BME280;58785;55.566;38.058;2023-07-13T00:06:46;99370.09;;;14.22;74.44
71126;BME280;58785;55.566;38.058;2023-07-13T00:09:16;99369.66;;;14.19;74.35
71126;BME280;58785;55.566;38.058;2023-07-13T00:11:43;99384.31;;;14.23;74.36
71126;BME280;58785;55.566;38.058;2023-07-13T00:14:10;99370.88;;;14.16;74.26
71126;BME280;58785;55.566;38.058;2023-07-13T00:16:38;99385.19;;;14.23;74.31
71126;BME280;58785;55.566;38.058;2023-07-13T00:19:06;99385.75;;;14.19;74.34
71126;BME280;58785;55.566;38.058;2023-07-13T00:21:32;99381.59;;;14.16;74.18
71126;BME280;58785;55.566;38.058;2023-07-13T00:23:58;99383.06;;;14.19;74.34
71126;BME280;58785;55.566;38.058;2023-07-13T00:26:26;99374.56;;;14.15;74.32
71126;BME280;58785;55.566;38.058;2023-07-13T00:28:51;99385.94;;;14.17;74.52
71126;BME280;58785;55.566;38.058;2023-07-13T00:31:17;99383.69;;;14.21;74.52
71126;BME280;58785;55.566;38.058;2023-07-13T00:33:43;99379.75;;;14.17;74.49
71126;BME280;58785;55.566;38.058;2023-07-13T00:36:10;99388.81;;;14.16;74.44
71126;BME280;58785;55.566;38.058;2023-07-13T00:38:36;99386.13;;;14.16;74.57
71126;BME280;58785;55.566;38.058;2023-07-13T00:41:03;99385.28;;;14.15;74.49
71126;BME280;58785;55.566;38.058;2023-07-13T00:43:30;99371.59;;;14.10;74.83
71126;BME280;58785;55.566;38.058;2023-07-13T00:48:26;99377.59;;;14.12;74.48
71126;BME280;58785;55.566;38.058;2023-07-13T00:50:55;99377.59;;;14.12;74.52
71126;BME280;58785;55.566;38.058;2023-07-13T00:53:24;99383.63;;;14.14;74.40
71126;BME280;58785;55.566;38.058;2023-07-13T00:55:53;99391.50;;;14.16;74.62
71126;BME280;58785;55.566;38.058;2023-07-13T00:58:20;99387.78;;;14.17;74.33
71126;BME280;58785;55.566;38.058;2023-07-13T01:00:47;99385.28;;;14.15;74.57
71126;BME280;58785;55.566;38.058;2023-07-13T01:03:14;99372.00;;;14.07;74.70
71126;BME280;58785;55.566;38.058;2023-07-13T01:05:40;99369.94;;;14.09;74.64
71126;BME280;58785;55.566;38.058;2023-07-13T01:08:05;99381.97;;;14.13;74.39
71126;BME280;58785;55.566;38.058;2023-07-13T01:10:31;99371.81;;;14.08;74.55
71126;BME280;58785;55.566;38.058;2023-07-13T01:13:06;99368.38;;;14.15;74.58
71126;BME280;58785;55.566;38.058;2023-07-13T01:15:46;99379.28;;;14.13;74.69
71126;BME280;58785;55.566;38.058;2023-07-13T01:18:16;99371.81;;;14.08;74.73
71126;BME280;58785;55.566;38.058;2023-07-13T01:21:01;99372.25;;;14.12;74.73
71126;BME280;58785;55.566;38.058;2023-07-13T01:23:29;99361.91;;;14.09;74.78
71126;BME280;58785;55.566;38.058;2023-07-13T01:25:57;99354.69;;;14.09;74.36
71126;BME280;58785;55.566;38.058;2023-07-13T01:28:24;99362.81;;;14.16;74.42
71126;BME280;58785;55.566;38.058;2023-07-13T01:30:53;99368.19;;;14.16;74.56
71126;BME280;58785;55.566;38.058;2023-07-13T01:33:19;99369.84;;;14.17;74.79
71126;BME280;58785;55.566;38.058;2023-07-13T01:35:45;99356.81;;;14.14;74.49
71126;BME280;58785;55.566;38.058;2023-07-13T01:38:14;99350.78;;;14.12;74.88
71126;BME280;58785;55.566;38.058;2023-07-13T01:40:40;99361.34;;;14.14;74.60
71126;BME280;58785;55.566;38.058;2023-07-13T01:43:06;99360.34;;;14.15;74.89
71126;BME280;58785;55.566;38.058;2023-07-13T01:45:32;99345.44;;;14.12;74.77
71126;BME280;58785;55.566;38.058;2023-07-13T01:47:58;99353.13;;;14.15;74.87
71126;BME280;58785;55.566;38.058;2023-07-13T01:50:25;99359.03;;;14.10;74.69
71126;BME280;58785;55.566;38.058;2023-07-13T01:52:51;99360.13;;;14.16;74.80
71126;BME280;58785;55.566;38.058;2023-07-13T01:55:17;99347.75;;;14.15;74.63
71126;BME280;58785;55.566;38.058;2023-07-13T01:57:42;99350.25;;;14.17;74.72
71126;BME280;58785;55.566;38.058;2023-07-13T02:00:10;99351.63;;;14.13;74.70
71126;BME280;58785;55.566;38.058;2023-07-13T02:02:36;99359.13;;;14.17;74.43
71126;BME280;58785;55.566;38.058;2023-07-13T02:05:02;99355.22;;;14.20;74.62
71126;BME280;58785;55.566;38.058;2023-07-13T02:07:29;99356.25;;;14.19;74.69
71126;BME280;58785;55.566;38.058;2023-07-13T02:09:55;99354.00;;;14.22;74.45
71126;BME280;58785;55.566;38.058;2023-07-13T02:12:21;99353.16;;;14.22;74.62
71126;BME280;58785;55.566;38.058;2023-07-13T02:14:46;99353.16;;;14.22;74.57
71126;BME280;58785;55.566;38.058;2023-07-13T02:17:13;99364.63;;;14.30;74.48
71126;BME280;58785;55.566;38.058;2023-07-13T02:19:39;99350.97;;;14.25;74.25
71126;BME280;58785;55.566;38.058;2023-07-13T02:22:04;99351.22;;;14.30;74.55
71126;BME280;58785;55.566;38.058;2023-07-13T02:24:30;99352.03;;;14.31;74.54
71126;BME280;58785;55.566;38.058;2023-07-13T02:26:56;99349.13;;;14.26;74.69
71126;BME280;58785;55.566;38.058;2023-07-13T02:29:21;99352.44;;;14.28;75.11
71126;BME280;58785;55.566;38.058;2023-07-13T02:31:47;99345.41;;;14.27;74.67
71126;BME280;58785;55.566;38.058;2023-07-13T02:34:13;99334.88;;;14.25;74.78
71126;BME280;58785;55.566;38.058;2023-07-13T02:36:39;99336.53;;;14.26;74.84
71126;BME280;58785;55.566;38.058;2023-07-13T02:39:06;99338.19;;;14.27;74.56
71126;BME280;58785;55.566;38.058;2023-07-13T02:41:32;99327.38;;;14.21;74.82
71126;BME280;58785;55.566;38.058;2023-07-13T02:43:58;99337.81;;;14.30;74.91
71126;BME280;58785;55.566;38.058;2023-07-13T02:46:30;99334.47;;;14.28;74.85
71126;BME280;58785;55.566;38.058;2023-07-13T02:48:56;99349.16;;;14.32;74.93
71126;BME280;58785;55.566;38.058;2023-07-13T02:51:22;99336.59;;;14.33;74.60
71126;BME280;58785;55.566;38.058;2023-07-13T02:53:47;99339.72;;;14.36;74.85
71126;BME280;58785;55.566;38.058;2023-07-13T02:56:13;99333.97;;;14.39;74.57
71126;BME280;58785;55.566;38.058;2023-07-13T02:58:39;99334.28;;;14.45;74.79
71126;BME280;58785;55.566;38.058;2023-07-13T03:01:09;99328.91;;;14.45;74.33
71126;BME280;58785;55.566;38.058;2023-07-13T03:03:36;99337.19;;;14.50;74.53
71126;BME280;58785;55.566;38.058;2023-07-13T03:06:03;99336.38;;;14.49;74.57
71126;BME280;58785;55.566;38.058;2023-07-13T03:08:31;99337.00;;;14.51;74.53
71126;BME280;58785;55.566;38.058;2023-07-13T03:11:01;99340.59;;;14.58;74.31
71126;BME280;58785;55.566;38.058;2023-07-13T03:13:27;99337.50;;;14.61;74.03
71126;BME280;58785;55.566;38.058;2023-07-13T03:15:53;99328.94;;;14.73;74.41
71126;BME280;58785;55.566;38.058;2023-07-13T03:18:19;99323.22;;;14.76;74.17
71126;BME280;58785;55.566;38.058;2023-07-13T03:20:44;99329.44;;;14.83;73.93
71126;BME280;58785;55.566;38.058;2023-07-13T03:23:10;99335.50;;;14.91;73.74
71126;BME280;58785;55.566;38.058;2023-07-13T03:25:36;99340.09;;;14.98;73.90
71126;BME280;58785;55.566;38.058;2023-07-13T03:28:02;99346.31;;;14.98;74.08
71126;BME280;58785;55.566;38.058;2023-07-13T03:30:29;99339.91;;;14.99;74.24
71126;BME280;58785;55.566;38.058;2023-07-13T03:32:55;99334.31;;;14.94;73.83
71126;BME280;58785;55.566;38.058;2023-07-13T03:35:20;99333.47;;;14.93;74.30
71126;BME280;58785;55.566;38.058;2023-07-13T03:37:46;99343.00;;;14.96;74.23
71126;BME280;58785;55.566;38.058;2023-07-13T03:40:12;99341.34;;;14.95;74.13
71126;BME280;58785;55.566;38.058;2023-07-13T03:42:38;99351.88;;;14.97;73.97
71126;BME280;58785;55.566;38.058;2023-07-13T03:45:04;99350.22;;;14.95;74.05
71126;BME280;58785;55.566;38.058;2023-07-13T03:47:31;99349.81;;;14.99;74.43
71126;BME280;58785;55.566;38.058;2023-07-13T03:49:56;99347.06;;;14.92;74.44
71126;BME280;58785;55.566;38.058;2023-07-13T03:52:22;99350.84;;;14.98;74.30
71126;BME280;58785;55.566;38.058;2023-07-13T03:54:48;99354.78;;;15.02;74.13
71126;BME280;58785;55.566;38.058;2023-07-13T03:57:14;99345.06;;;15.01;73.87
71126;BME280;58785;55.566;38.058;2023-07-13T03:59:40;99345.69;;;15.03;73.85
71126;BME280;58785;55.566;38.058;2023-07-13T04:02:05;99339.72;;;15.01;73.96
71126;BME280;58785;55.566;38.058;2023-07-13T04:04:31;99337.66;;;15.03;74.28
71126;BME280;58785;55.566;38.058;2023-07-13T04:06:57;99339.56;;;15.09;73.72
71126;BME280;58785;55.566;38.058;2023-07-13T04:09:24;99344.94;;;15.09;74.01
71126;BME280;58785;55.566;38.058;2023-07-13T04:11:50;99349.13;;;15.18;73.88
71126;BME280;58785;55.566;38.058;2023-07-13T04:14:16;99346.06;;;15.21;73.85
71126;BME280;58785;55.566;38.058;2023-07-13T04:16:42;99344.84;;;15.23;74.04
71126;BME280;58785;55.566;38.058;2023-07-13T04:19:09;99351.31;;;15.36;73.32
71126;BME280;58785;55.566;38.058;2023-07-13T04:21:36;99354.66;;;15.38;73.56
71126;BME280;58785;55.566;38.058;2023-07-13T04:24:03;99345.81;;;15.44;73.62
71126;BME280;58785;55.566;38.058;2023-07-13T04:26:29;99356.81;;;15.56;73.05
71126;BME280;58785;55.566;38.058;2023-07-13T04:28:56;99354.00;;;15.64;72.98
71126;BME280;58785;55.566;38.058;2023-07-13T04:31:22;99349.69;;;15.69;72.76
71126;BME280;58785;55.566;38.058;2023-07-13T04:33:49;99353.25;;;15.76;72.72
71126;BME280;58785;55.566;38.058;2023-07-13T04:36:16;99349.56;;;15.84;72.77
71126;BME280;58785;55.566;38.058;2023-07-13T04:38:42;99341.88;;;15.81;72.79
71126;BME280;58785;55.566;38.058;2023-07-13T04:41:09;99347.28;;;15.88;72.62
71126;BME280;58785;55.566;38.058;2023-07-13T04:43:37;99347.91;;;15.90;72.82
71126;BME280;58785;55.566;38.058;2023-07-13T04:46:07;99347.31;;;15.94;72.56
71126;BME280;58785;55.566;38.058;2023-07-13T04:48:34;99336.97;;;15.91;72.40
71126;BME280;58785;55.566;38.058;2023-07-13T04:50:59;99345.84;;;15.92;72.71
71126;BME280;58785;55.566;38.058;2023-07-13T04:53:26;99343.56;;;15.89;72.74
71126;BME280;58785;55.566;38.058;2023-07-13T04:55:52;99338.41;;;15.87;72.55
71126;BME280;58785;55.566;38.058;2023-07-13T04:58:18;99336.53;;;15.88;72.54
71126;BME280;58785;55.566;38.058;2023-07-13T05:00:44;99340.25;;;15.93;72.40
71126;BME280;58785;55.566;38.058;2023-07-13T05:03:09;99341.75;;;15.96;72.42
71126;BME280;58785;55.566;38.058;2023-07-13T05:05:35;99335.53;;;16.02;72.52
71126;BME280;58785;55.566;38.058;2023-07-13T05:08:01;99327.31;;;16.03;72.24
71126;BME280;58785;55.566;38.058;2023-07-13T05:10:27;99339.34;;;16.14;72.36
71126;BME280;58785;55.566;38.058;2023-07-13T05:12:53;99338.09;;;16.17;72.17
71126;BME280;58785;55.566;38.058;2023-07-13T05:15:21;99348.84;;;16.23;71.86
71126;BME280;58785;55.566;38.058;2023-07-13T05:17:48;99352.19;;;16.32;71.89
71126;BME280;58785;55.566;38.058;2023-07-13T05:20:15;99347.25;;;16.35;71.76
71126;BME280;58785;55.566;38.058;2023-07-13T05:22:42;99351.19;;;16.39;71.70
71126;BME280;58785;55.566;38.058;2023-07-13T05:25:08;99361.56;;;16.49;71.21
71126;BME280;58785;55.566;38.058;2023-07-13T05:27:35;99347.47;;;16.47;71.58
71126;BME280;58785;55.566;38.058;2023-07-13T05:30:02;99359.31;;;16.66;71.37
71126;BME280;58785;55.566;38.058;2023-07-13T05:32:31;99362.66;;;16.81;71.40
71126;BME280;58785;55.566;38.058;2023-07-13T05:34:58;99360.38;;;16.91;71.28
71126;BME280;58785;55.566;38.058;2023-07-13T05:37:23;99352.53;;;16.97;70.77
71126;BME280;58785;55.566;38.058;2023-07-13T05:39:49;99345.47;;;17.09;70.50
71126;BME280;58785;55.566;38.058;2023-07-13T05:42:15;99358.50;;;17.32;70.19
71126;BME280;58785;55.566;38.058;2023-07-13T05:44:41;99358.06;;;17.48;69.71
71126;BME280;58785;55.566;38.058;2023-07-13T05:47:07;99354.72;;;17.66;69.27
71126;BME280;58785;55.566;38.058;2023-07-13T05:49:32;99350.72;;;17.81;68.90
71126;BME280;58785;55.566;38.058;2023-07-13T05:51:58;99344.47;;;17.94;68.60
71126;BME280;58785;55.566;38.058;2023-07-13T05:54:24;99343.38;;;18.08;68.50
71126;BME280;58785;55.566;38.058;2023-07-13T05:56:52;99347.72;;;18.09;68.35
71126;BME280;58785;55.566;38.058;2023-07-13T05:59:18;99334.50;;;17.95;68.60
71126;BME280;58785;55.566;38.058;2023-07-13T06:01:44;99339.09;;;17.88;68.80
71126;BME280;58785;55.566;38.058;2023-07-13T06:04:09;99339.94;;;17.81;68.97
71126;BME280;58785;55.566;38.058;2023-07-13T06:06:35;99334.16;;;17.85;68.97
71126;BME280;58785;55.566;38.058;2023-07-13T06:09:01;99335.41;;;17.75;68.95
71126;BME280;58785;55.566;38.058;2023-07-13T06:11:28;99339.78;;;17.76;69.18
71126;BME280;58785;55.566;38.058;2023-07-13T06:13:55;99345.31;;;17.88;68.90
71126;BME280;58785;55.566;38.058;2023-07-13T06:16:22;99340.28;;;18.05;68.48
71126;BME280;58785;55.566;38.058;2023-07-13T06:18:47;99335.84;;;18.24;68.21
71126;BME280;58785;55.566;38.058;2023-07-13T06:21:16;99334.84;;;18.43;67.83
71126;BME280;58785;55.566;38.058;2023-07-13T06:23:42;99340.34;;;18.61;67.50
71126;BME280;58785;55.566;38.058;2023-07-13T06:26:08;99338.59;;;18.80;67.36
71126;BME280;58785;55.566;38.058;2023-07-13T06:28:35;99340.97;;;18.95;66.77
71126;BME280;58785;55.566;38.058;2023-07-13T06:31:01;99335.22;;;19.10;66.51
71126;BME280;58785;55.566;38.058;2023-07-13T06:33:27;99334.38;;;19.34;66.07
71126;BME280;58785;55.566;38.058;2023-07-13T06:35:53;99338.38;;;19.50;65.63
71126;BME280;58785;55.566;38.058;2023-07-13T06:38:21;99329.19;;;19.51;65.79
71126;BME280;58785;55.566;38.058;2023-07-13T06:40:47;99328.81;;;19.47;65.59
71126;BME280;58785;55.566;38.058;2023-07-13T06:43:13;99320.50;;;19.49;65.49
71126;BME280;58785;55.566;38.058;2023-07-13T06:45:45;99323.16;;;19.56;65.42
71126;BME280;58785;55.566;38.058;2023-07-13T06:48:16;99309.19;;;19.59;65.27
71126;BME280;58785;55.566;38.058;2023-07-13T06:50:42;99323.00;;;19.69;65.25
71126;BME280;58785;55.566;38.058;2023-07-13T06:53:09;99310.31;;;19.69;65.07
71126;BME280;58785;55.566;38.058;2023-07-13T06:55:35;99304.97;;;19.63;64.89
71126;BME280;58785;55.566;38.058;2023-07-13T06:58:01;99317.94;;;19.54;65.05
71126;BME280;58785;55.566;38.058;2023-07-13T07:00:26;99315.38;;;19.41;65.35
71126;BME280;58785;55.566;38.058;2023-07-13T07:02:52;99304.69;;;19.28;65.34
71126;BME280;58785;55.566;38.058;2023-07-13T07:05:18;99313.03;;;19.26;65.51
71126;BME280;58785;55.566;38.058;2023-07-13T07:07:47;99310.75;;;19.23;65.28
71126;BME280;58785;55.566;38.058;2023-07-13T07:10:12;99307.53;;;19.14;65.46
71126;BME280;58785;55.566;38.058;2023-07-13T07:12:38;99314.19;;;19.12;65.25
71126;BME280;58785;55.566;38.058;2023-07-13T07:15:04;99310.25;;;19.14;65.01
71126;BME280;58785;55.566;38.058;2023-07-13T07:17:30;99311.50;;;19.12;64.83
71126;BME280;58785;55.566;38.058;2023-07-13T07:19:56;99311.94;;;19.09;64.43
71126;BME280;58785;55.566;38.058;2023-07-13T07:22:22;99307.88;;;19.00;64.56
71126;BME280;58785;55.566;38.058;2023-07-13T07:24:48;99312.00;;;19.02;64.34
71126;BME280;58785;55.566;38.058;2023-07-13T07:27:14;99323.03;;;19.01;64.62
71126;BME280;58785;55.566;38.058;2023-07-13T07:29:39;99328.91;;;18.98;64.82
71126;BME280;58785;55.566;38.058;2023-07-13T07:32:05;99327.00;;;18.98;64.64
71126;BME280;58785;55.566;38.058;2023-07-13T07:34:31;99335.06;;;19.05;64.46
71126;BME280;58785;55.566;38.058;2023-07-13T07:36:59;99331.59;;;18.98;64.69
71126;BME280;58785;55.566;38.058;2023-07-13T07:39:26;99339.53;;;18.92;65.22
71126;BME280;58785;55.566;38.058;2023-07-13T07:41:53;99333.84;;;18.76;65.55
71126;BME280;58785;55.566;38.058;2023-07-13T07:44:18;99338.53;;;18.55;66.16
71126;BME280;58785;55.566;38.058;2023-07-13T07:46:44;99333.25;;;18.35;66.99
71126;BME280;58785;55.566;38.058;2023-07-13T07:49:10;99336.44;;;18.26;67.81
71126;BME280;58785;55.566;38.058;2023-07-13T07:51:36;99324.88;;;18.12;67.89
71126;BME280;58785;55.566;38.058;2023-07-13T07:54:03;99341.50;;;18.09;68.50
71126;BME280;58785;55.566;38.058;2023-07-13T07:56:29;99341.50;;;18.09;68.58
71126;BME280;58785;55.566;38.058;2023-07-13T07:58:54;99341.06;;;18.12;68.43
71126;BME280;58785;55.566;38.058;2023-07-13T08:01:20;99344.56;;;18.19;68.72
71126;BME280;58785;55.566;38.058;2023-07-13T08:03:46;99339.28;;;18.31;68.34
71126;BME280;58785;55.566;38.058;2023-07-13T08:06:12;99340.88;;;18.45;68.50
71126;BME280;58785;55.566;38.058;2023-07-13T08:08:39;99354.09;;;18.53;68.28
71126;BME280;58785;55.566;38.058;2023-07-13T08:11:06;99345.38;;;18.58;68.04
71126;BME280;58785;55.566;38.058;2023-07-13T08:13:33;99338.25;;;18.63;67.67
71126;BME280;58785;55.566;38.058;2023-07-13T08:15:59;99348.81;;;18.72;67.58
71126;BME280;58785;55.566;38.058;2023-07-13T08:18:25;99339.25;;;18.76;67.76
71126;BME280;58785;55.566;38.058;2023-07-13T08:20:51;99341.53;;;18.72;68.00
71126;BME280;58785;55.566;38.058;2023-07-13T08:23:17;99346.19;;;18.58;68.13
71126;BME280;58785;55.566;38.058;2023-07-13T08:25:50;99328.22;;;18.46;68.43
71126;BME280;58785;55.566;38.058;2023-07-13T08:28:16;99343.03;;;18.30;68.67
71126;BME280;58785;55.566;38.058;2023-07-13T08:30:42;99343.13;;;18.17;69.02
71126;BME280;58785;55.566;38.058;2023-07-13T08:33:08;99342.97;;;18.05;69.28
71126;BME280;58785;55.566;38.058;2023-07-13T08:35:33;99348.84;;;17.95;69.67
71126;BME280;58785;55.566;38.058;2023-07-13T08:37:59;99349.28;;;17.86;69.72
71126;BME280;58785;55.566;38.058;2023-07-13T08:40:27;99350.94;;;17.80;70.13
71126;BME280;58785;55.566;38.058;2023-07-13T08:42:58;99352.84;;;17.73;70.46
71126;BME280;58785;55.566;38.058;2023-07-13T08:45:41;99338.94;;;17.63;70.73
71126;BME280;58785;55.566;38.058;2023-07-13T08:50:51;99337.06;;;17.63;71.00
71126;BME280;58785;55.566;38.058;2023-07-13T08:53:22;99339.97;;;17.68;70.94
71126;BME280;58785;55.566;38.058;2023-07-13T08:55:53;99340.78;;;17.82;71.02
71126;BME280;58785;55.566;38.058;2023-07-13T08:58:24;99330.41;;;17.86;70.47
71126;BME280;58785;55.566;38.058;2023-07-13T09:03:46;99348.97;;;18.07;69.79
71126;BME280;58785;55.566;38.058;2023-07-13T09:06:16;99352.50;;;18.07;69.46
71126;BME280;58785;55.566;38.058;2023-07-13T09:08:59;99346.06;;;18.08;69.30
71126;BME280;58785;55.566;38.058;2023-07-13T09:11:41;99331.81;;;17.95;69.28
71126;BME280;58785;55.566;38.058;2023-07-13T09:14:37;99348.00;;;17.95;69.53
71126;BME280;58785;55.566;38.058;2023-07-13T09:17:27;99354.00;;;17.97;69.16
71126;BME280;58785;55.566;38.058;2023-07-13T09:19:59;99344.66;;;17.99;68.79
71126;BME280;58785;55.566;38.058;2023-07-13T09:22:29;99338.78;;;18.09;68.27
71126;BME280;58785;55.566;38.058;2023-07-13T09:27:46;99346.31;;;18.38;67.92
71126;BME280;58785;55.566;38.058;2023-07-13T09:32:43;99350.66;;;18.39;67.46
71126;BME280;58785;55.566;38.058;2023-07-13T09:35:23;99365.66;;;18.35;67.49
71126;BME280;58785;55.566;38.058;2023-07-13T09:37:50;99366.47;;;18.36;67.53
71126;BME280;58785;55.566;38.058;2023-07-13T09:40:28;99359.97;;;18.44;67.48
71126;BME280;58785;55.566;38.058;2023-07-13T09:42:58;99361.00;;;18.49;67.27
71126;BME280;58785;55.566;38.058;2023-07-13T09:45:29;99366.41;;;18.49;67.59
71126;BME280;58785;55.566;38.058;2023-07-13T09:48:04;99372.41;;;18.51;67.60
71126;BME280;58785;55.566;38.058;2023-07-13T09:50:30;99370.53;;;18.52;67.92
71126;BME280;58785;55.566;38.058;2023-07-13T09:52:55;99369.06;;;18.56;68.11
71126;BME280;58785;55.566;38.058;2023-07-13T09:55:38;99366.13;;;18.64;68.34
71126;BME280;58785;55.566;38.058;2023-07-13T09:58:10;99363.41;;;18.64;68.55
71126;BME280;58785;55.566;38.058;2023-07-13T10:00:37;99371.78;;;18.56;68.66
71126;BME280;58785;55.566;38.058;2023-07-13T10:03:09;99377.22;;;18.43;69.04
71126;BME280;58785;55.566;38.058;2023-07-13T10:05:42;99365.69;;;18.29;69.36
71126;BME280;58785;55.566;38.058;2023-07-13T10:08:26;99361.13;;;18.23;69.13
71126;BME280;58785;55.566;38.058;2023-07-13T10:11:00;99371.78;;;18.11;69.25
71126;BME280;58785;55.566;38.058;2023-07-13T10:13:37;99360.66;;;17.94;69.32
71126;BME280;58785;55.566;38.058;2023-07-13T10:16:06;99371.25;;;17.89;69.40
71126;BME280;58785;55.566;38.058;2023-07-13T10:18:58;99376.25;;;17.86;69.46
71126;BME280;58785;55.566;38.058;2023-07-13T10:21:28;99374.16;;;17.88;69.69
71126;BME280;58785;55.566;38.058;2023-07-13T10:24:19;99365.84;;;17.89;69.64
71126;BME280;58785;55.566;38.058;2023-07-13T10:29:22;99370.63;;;17.94;69.71
71126;BME280;58785;55.566;38.058;2023-07-13T10:31:49;99375.59;;;17.90;70.05
71126;BME280;58785;55.566;38.058;2023-07-13T10:34:15;99382.25;;;17.94;69.96
71126;BME280;58785;55.566;38.058;2023-07-13T10:36:44;99382.84;;;17.96;69.86
71126;BME280;58785;55.566;38.058;2023-07-13T10:39:23;99376.25;;;17.86;70.23
71126;BME280;58785;55.566;38.058;2023-07-13T10:42:02;99379.78;;;17.79;70.46
71126;BME280;58785;55.566;38.058;2023-07-13T10:44:31;99390.38;;;17.68;70.59
71126;BME280;58785;55.566;38.058;2023-07-13T10:47:03;99383.97;;;17.56;71.02
71126;BME280;58785;55.566;38.058;2023-07-13T10:49:33;99392.91;;;17.49;71.55
71126;BME280;58785;55.566;38.058;2023-07-13T10:52:01;99396.66;;;17.35;71.84
71126;BME280;58785;55.566;38.058;2023-07-13T10:54:31;99399.34;;;17.22;71.99
71126;BME280;58785;55.566;38.058;2023-07-13T10:59:32;99397.88;;;17.00;72.29
71126;BME280;58785;55.566;38.058;2023-07-13T11:04:46;99397.44;;;16.70;73.38
71126;BME280;58785;55.566;38.058;2023-07-13T11:07:24;99409.63;;;16.65;73.54
71126;BME280;58785;55.566;38.058;2023-07-13T11:09:58;99404.22;;;16.59;73.76
71126;BME280;58785;55.566;38.058;2023-07-13T11:19:51;99405.63;;;16.42;74.31
71126;BME280;58785;55.566;38.058;2023-07-13T11:22:24;99417.03;;;16.44;74.55
71126;BME280;58785;55.566;38.058;2023-07-13T11:24:59;99409.53;;;16.32;74.57
71126;BME280;58785;55.566;38.058;2023-07-13T11:27:50;99417.63;;;16.39;74.81
71126;BME280;58785;55.566;38.058;2023-07-13T11:36:03;99401.41;;;16.19;75.49
71126;BME280;58785;55.566;38.058;2023-07-13T11:38:33;99396.66;;;16.15;75.70
71126;BME280;58785;55.566;38.058;2023-07-13T11:41:04;99399.13;;;16.16;75.55
71126;BME280;58785;55.566;38.058;2023-07-13T11:43:30;99404.50;;;16.16;75.79
71126;BME280;58785;55.566;38.058;2023-07-13T11:45:55;99401.19;;;16.14;76.25
71126;BME280;58785;55.566;38.058;2023-07-13T11:48:27;99410.09;;;16.21;76.28
71126;BME280;58785;55.566;38.058;2023-07-13T11:50:59;99402.03;;;16.21;76.72
71126;BME280;58785;55.566;38.058;2023-07-13T11:53:27;99403.69;;;16.22;76.37
71126;BME280;58785;55.566;38.058;2023-07-13T11:55:53;99403.06;;;16.20;76.77
71126;BME280;58785;55.566;38.058;2023-07-13T11:58:23;99411.75;;;16.22;76.92
71126;BME280;58785;55.566;38.058;2023-07-13T12:00:50;99392.72;;;16.17;77.07
71126;BME280;58785;55.566;38.058;2023-07-13T12:03:22;99405.97;;;16.19;77.25
71126;BME280;58785;55.566;38.058;2023-07-13T12:06:02;99403.88;;;16.14;77.21
71126;BME280;58785;55.566;38.058;2023-07-13T12:08:28;99409.44;;;16.06;77.27
71126;BME280;58785;55.566;38.058;2023-07-13T12:11:04;99403.84;;;16.07;76.97
71126;BME280;58785;55.566;38.058;2023-07-13T12:13:36;99395.75;;;16.01;77.03
71126;BME280;58785;55.566;38.058;2023-07-13T12:16:11;99392.22;;;15.94;76.83
71126;BME280;58785;55.566;38.058;2023-07-13T12:18:38;99392.78;;;15.89;76.82
71126;BME280;58785;55.566;38.058;2023-07-13T12:21:10;99394.03;;;15.87;77.17
71126;BME280;58785;55.566;38.058;2023-07-13T12:23:39;99388.19;;;15.83;77.09
71126;BME280;58785;55.566;38.058;2023-07-13T12:26:09;99392.13;;;15.80;77.18
71126;BME280;58785;55.566;38.058;2023-07-13T12:28:45;99377.63;;;15.75;77.34
71126;BME280;58785;55.566;38.058;2023-07-13T12:34:06;99386.13;;;15.78;77.69
71126;BME280;58785;55.566;38.058;2023-07-13T12:36:37;99392.56;;;15.84;78.14
71126;BME280;58785;55.566;38.058;2023-07-13T12:39:14;99389.69;;;15.86;78.17
71126;BME280;58785;55.566;38.058;2023-07-13T12:41:41;99389.28;;;15.89;77.99
71126;BME280;58785;55.566;38.058;2023-07-13T12:44:12;99378.31;;;15.90;78.56
71126;BME280;58785;55.566;38.058;2023-07-13T12:46:39;99365.69;;;15.84;78.57
71126;BME280;58785;55.566;38.058;2023-07-13T12:49:07;99378.78;;;15.94;78.78
71126;BME280;58785;55.566;38.058;2023-07-13T12:51:33;99372.13;;;15.90;78.96
71126;BME280;58785;55.566;38.058;2023-07-13T12:54:16;99366.53;;;15.91;78.77
71126;BME280;58785;55.566;38.058;2023-07-13T12:56:42;99381.06;;;15.97;78.90
71126;BME280;58785;55.566;38.058;2023-07-13T12:59:17;99366.53;;;15.91;78.73
71126;BME280;58785;55.566;38.058;2023-07-13T13:01:44;99376.09;;;15.94;78.73
71126;BME280;58785;55.566;38.058;2023-07-13T13:04:11;99369.84;;;15.93;79.12
71126;BME280;58785;55.566;38.058;2023-07-13T13:06:39;99366.16;;;15.94;79.06
71126;BME280;58785;55.566;38.058;2023-07-13T13:09:12;99369.66;;;15.95;78.96
71126;BME280;58785;55.566;38.058;2023-07-13T13:11:39;99373.81;;;15.97;79.09
71126;BME280;58785;55.566;38.058;2023-07-13T13:14:06;99356.84;;;15.97;78.90
71126;BME280;58785;55.566;38.058;2023-07-13T13:16:47;99368.84;;;15.94;78.70
71126;BME280;58785;55.566;38.058;2023-07-13T13:19:17;99388.66;;;15.93;78.97
71126;BME280;58785;55.566;38.058;2023-07-13T13:21:45;99383.69;;;15.90;79.33
71126;BME280;58785;55.566;38.058;2023-07-13T13:24:19;99374.81;;;15.90;78.81
71126;BME280;58785;55.566;38.058;2023-07-13T13:26:46;99377.91;;;15.87;78.63
71126;BME280;58785;55.566;38.058;2023-07-13T13:29:15;99354.72;;;15.86;78.91
71126;BME280;58785;55.566;38.058;2023-07-13T13:31:41;99364.47;;;15.87;79.05
71126;BME280;58785;55.566;38.058;2023-07-13T13:34:12;99365.03;;;15.82;78.92